createdAt,value
2023-02-19T00:01:18.729Z,76.34
2023-02-19T00:03:51.700Z,76.30
2023-02-19T00:06:20.858Z,76.27
2023-02-19T00:08:48.914Z,76.25
2023-02-19T00:11:19.247Z,76.21
2023-02-19T00:13:48.423Z,76.20
2023-02-19T00:16:18.213Z,76.19
2023-02-19T00:18:46.505Z,76.20
2023-02-19T00:21:15.405Z,76.20
2023-02-19T00:23:43.625Z,76.20
2023-02-19T00:26:18.558Z,76.21
2023-02-19T00:28:48.372Z,76.20
2023-02-19T00:31:24.434Z,76.19
2023-02-19T00:33:54.463Z,76.19
2023-02-19T00:36:23.082Z,76.19
2023-02-19T00:38:51.262Z,76.19
2023-02-19T00:41:20.111Z,76.16
2023-02-19T00:43:58.521Z,76.15
2023-02-19T00:46:27.179Z,76.11
2023-02-19T00:48:55.970Z,76.09
2023-02-19T00:51:30.157Z,76.09
2023-02-19T00:53:58.561Z,76.08
2023-02-19T00:56:27.070Z,76.05
2023-02-19T00:58:55.295Z,76.02
2023-02-19T01:01:23.783Z,75.96
2023-02-19T01:03:52.000Z,75.91
2023-02-19T01:06:20.755Z,75.81
2023-02-19T01:08:49.023Z,75.71
2023-02-19T01:11:17.534Z,75.63
2023-02-19T01:13:46.009Z,75.59
2023-02-19T01:16:15.648Z,75.53
2023-02-19T01:18:44.115Z,75.48
2023-02-19T01:21:16.787Z,75.42
2023-02-19T01:23:44.783Z,75.36
2023-02-19T01:26:14.295Z,75.27
2023-02-19T01:28:42.895Z,75.20
2023-02-19T01:31:15.094Z,75.14
2023-02-19T01:33:47.050Z,75.05
2023-02-19T01:36:15.525Z,74.92
2023-02-19T01:38:44.110Z,74.78
2023-02-19T01:41:13.714Z,74.67
2023-02-19T01:44:00.082Z,74.60
2023-02-19T01:46:29.739Z,74.50
2023-02-19T01:48:59.442Z,74.30
2023-02-19T01:51:28.114Z,74.17
2023-02-19T01:53:59.165Z,74.11
2023-02-19T01:56:28.738Z,74.07
2023-02-19T01:58:57.027Z,74.03
2023-02-19T02:01:25.357Z,74.00
2023-02-19T02:03:53.619Z,73.96
2023-02-19T02:06:23.989Z,73.95
2023-02-19T02:08:53.859Z,73.96
2023-02-19T02:11:22.418Z,73.96
2023-02-19T02:13:51.710Z,73.92
2023-02-19T02:16:35.122Z,73.87
2023-02-19T02:19:06.253Z,73.87
2023-02-19T02:21:53.551Z,73.87
2023-02-19T02:24:30.841Z,73.84
2023-02-19T02:27:11.229Z,73.80
2023-02-19T02:29:51.913Z,73.77
2023-02-19T02:32:22.266Z,73.76
2023-02-19T02:34:59.810Z,73.70
2023-02-19T02:37:31.317Z,73.60
2023-02-19T02:40:00.725Z,73.55
2023-02-19T02:42:28.904Z,73.54
2023-02-19T02:44:58.278Z,73.53
2023-02-19T02:47:26.697Z,73.51
2023-02-19T02:49:56.616Z,73.48
2023-02-19T02:52:24.668Z,73.46
2023-02-19T02:54:52.812Z,73.45
2023-02-19T02:57:21.184Z,73.42
2023-02-19T02:59:49.262Z,73.42
2023-02-19T03:02:23.379Z,73.41
2023-02-19T03:04:51.982Z,73.40
2023-02-19T03:07:20.609Z,73.40
2023-02-19T03:09:49.733Z,73.28
2023-02-19T03:12:19.658Z,73.14
2023-02-19T03:14:51.595Z,73.13
2023-02-19T03:17:32.329Z,73.13
2023-02-19T03:20:01.329Z,73.11
2023-02-19T03:22:31.327Z,73.10
2023-02-19T03:25:02.004Z,73.07
2023-02-19T03:27:30.642Z,73.03
2023-02-19T03:30:01.921Z,72.96
2023-02-19T03:32:33.889Z,72.88
2023-02-19T03:35:03.803Z,72.82
2023-02-19T03:37:41.934Z,72.79
2023-02-19T03:40:10.768Z,72.74
2023-02-19T03:42:57.609Z,72.66
2023-02-19T03:45:44.511Z,72.59
2023-02-19T03:48:15.708Z,72.58
2023-02-19T03:50:47.933Z,72.55
2023-02-19T03:53:38.182Z,72.40
2023-02-19T03:56:11.805Z,72.40
2023-02-19T03:58:51.468Z,72.37
2023-02-19T04:01:41.031Z,72.33
2023-02-19T04:04:15.240Z,72.26
2023-02-19T04:06:44.776Z,72.29
2023-02-19T04:09:14.489Z,72.29
2023-02-19T04:11:43.001Z,72.20
2023-02-19T04:14:14.533Z,72.18
2023-02-19T04:16:45.832Z,72.15
2023-02-19T04:19:19.228Z,72.15
2023-02-19T04:21:49.952Z,72.14
2023-02-19T04:24:30.387Z,72.14
2023-02-19T04:26:58.986Z,72.08
2023-02-19T04:29:27.253Z,71.95
2023-02-19T04:31:55.346Z,71.88
2023-02-19T04:34:23.509Z,71.72
2023-02-19T04:36:51.493Z,71.46
2023-02-19T04:39:19.965Z,71.38
2023-02-19T04:41:48.040Z,71.36
2023-02-19T04:44:16.091Z,71.36
2023-02-19T04:46:44.257Z,71.33
2023-02-19T04:49:12.359Z,71.23
2023-02-19T04:51:40.424Z,71.17
2023-02-19T04:54:09.312Z,71.13
2023-02-19T04:56:37.503Z,71.10
2023-02-19T04:59:06.830Z,70.94
2023-02-19T05:01:35.019Z,70.78
2023-02-19T05:04:03.355Z,70.71
2023-02-19T05:06:31.883Z,70.68
2023-02-19T05:09:00.173Z,70.65
2023-02-19T05:11:28.214Z,70.62
2023-02-19T05:13:57.110Z,70.56
2023-02-19T05:16:25.220Z,70.45
2023-02-19T05:18:53.760Z,70.38
2023-02-19T05:21:21.863Z,70.34
2023-02-19T05:23:50.130Z,70.13
2023-02-19T05:26:19.735Z,70.03
2023-02-19T05:28:49.142Z,69.96
2023-02-19T05:31:17.302Z,69.96
2023-02-19T05:33:46.839Z,69.93
2023-02-19T05:36:14.907Z,69.90
2023-02-19T05:38:43.123Z,69.86
2023-02-19T05:41:13.378Z,69.75
2023-02-19T05:43:42.329Z,69.70
2023-02-19T05:46:11.894Z,69.53
2023-02-19T05:48:40.246Z,69.38
2023-02-19T05:51:10.881Z,69.39
2023-02-19T05:53:39.800Z,69.38
2023-02-19T05:56:26.524Z,69.37
2023-02-19T05:58:55.770Z,69.27
2023-02-19T06:01:25.694Z,69.21
2023-02-19T06:03:57.222Z,69.19
2023-02-19T06:06:26.629Z,69.18
2023-02-19T06:08:54.737Z,69.13
2023-02-19T06:11:22.783Z,69.04
2023-02-19T06:13:52.320Z,68.97
2023-02-19T06:16:20.618Z,68.94
2023-02-19T06:18:48.772Z,68.94
2023-02-19T06:21:17.746Z,68.99
2023-02-19T06:23:46.375Z,68.99
2023-02-19T06:26:14.539Z,69.04
2023-02-19T06:28:42.671Z,69.13
2023-02-19T06:31:12.836Z,69.25
2023-02-19T06:33:41.263Z,69.44
2023-02-19T06:36:14.829Z,69.77
2023-02-19T06:38:43.378Z,70.12
2023-02-19T06:41:12.951Z,70.38
2023-02-19T06:43:42.119Z,70.57
2023-02-19T06:46:11.067Z,70.81
2023-02-19T06:48:39.893Z,71.69
2023-02-19T06:51:08.173Z,72.81
2023-02-19T06:53:36.274Z,75.05
2023-02-19T06:56:21.707Z,77.32
2023-02-19T06:58:49.956Z,78.45
2023-02-19T07:01:18.080Z,78.36
2023-02-19T07:03:46.240Z,78.08
2023-02-19T07:06:14.608Z,78.36
2023-02-19T07:08:42.989Z,78.57
2023-02-19T07:11:11.638Z,78.34
2023-02-19T07:13:42.886Z,77.94
2023-02-19T07:16:11.836Z,77.46
2023-02-19T07:18:40.805Z,77.03
2023-02-19T07:21:14.157Z,76.98
2023-02-19T07:23:43.454Z,77.03
2023-02-19T07:26:12.695Z,76.90
2023-02-19T07:28:42.092Z,76.63
2023-02-19T07:31:10.972Z,76.40
2023-02-19T07:33:39.251Z,76.27
2023-02-19T07:36:09.156Z,76.09
2023-02-19T07:38:37.649Z,75.86
2023-02-19T07:41:06.191Z,75.69
2023-02-19T07:43:37.178Z,75.52
2023-02-19T07:46:06.253Z,75.43
2023-02-19T07:48:35.319Z,75.43
2023-02-19T07:51:05.210Z,75.18
2023-02-19T07:53:34.741Z,74.55
2023-02-19T07:56:04.693Z,73.99
2023-02-19T07:58:33.821Z,73.15
2023-02-19T08:01:09.311Z,71.99
2023-02-19T08:03:38.288Z,70.38
2023-02-19T08:06:07.125Z,67.45
2023-02-19T08:08:35.313Z,64.10
2023-02-19T08:11:04.608Z,61.07
2023-02-19T08:13:33.088Z,57.28
2023-02-19T08:16:17.313Z,53.90
2023-02-19T08:18:48.854Z,49.63
2023-02-19T08:21:16.966Z,47.44
2023-02-19T08:23:45.399Z,45.83
2023-02-19T08:26:13.621Z,45.67
2023-02-19T08:28:42.664Z,45.92
2023-02-19T08:31:11.634Z,45.95
2023-02-19T08:33:40.085Z,46.06
2023-02-19T08:36:09.298Z,46.13
2023-02-19T08:38:37.758Z,45.60
2023-02-19T08:41:07.095Z,45.51
2023-02-19T08:43:35.870Z,45.26
2023-02-19T08:46:04.464Z,44.47
2023-02-19T08:48:32.904Z,43.32
2023-02-19T08:51:02.568Z,41.72
2023-02-19T08:53:34.977Z,40.58
2023-02-19T08:56:08.883Z,38.87
2023-02-19T08:58:37.265Z,37.07
2023-02-19T09:01:16.204Z,35.63
2023-02-19T09:03:44.531Z,34.15
2023-02-19T09:06:17.135Z,33.64
2023-02-19T09:08:46.279Z,33.26
2023-02-19T09:11:16.265Z,33.17
2023-02-19T09:13:45.429Z,32.64
2023-02-19T09:16:13.547Z,32.23
2023-02-19T09:18:41.569Z,32.11
2023-02-19T09:21:13.118Z,31.64
2023-02-19T09:23:44.164Z,30.59
2023-02-19T09:26:13.299Z,29.71
2023-02-19T09:28:42.520Z,29.13
2023-02-19T09:31:13.249Z,28.36
2023-02-19T09:33:43.036Z,27.86
2023-02-19T09:36:11.538Z,27.45
2023-02-19T09:38:40.051Z,27.06
2023-02-19T09:41:10.288Z,26.80
2023-02-19T09:43:38.550Z,27.44
2023-02-19T09:46:36.676Z,28.67
2023-02-19T09:49:15.786Z,29.85
2023-02-19T09:51:49.532Z,31.12
2023-02-19T09:54:29.154Z,31.69
2023-02-19T09:56:57.943Z,31.31
2023-02-19T09:59:28.336Z,30.72
2023-02-19T10:02:03.430Z,29.84
2023-02-19T10:04:31.812Z,29.18
2023-02-19T10:07:00.018Z,28.12
2023-02-19T10:09:30.728Z,27.99
2023-02-19T10:12:01.560Z,27.19
2023-02-19T10:14:38.928Z,26.41
2023-02-19T10:17:07.284Z,25.90
2023-02-19T10:19:37.888Z,25.55
2023-02-19T10:22:07.723Z,24.86
2023-02-19T10:24:38.522Z,25.17
2023-02-19T10:27:11.866Z,24.48
2023-02-19T10:29:40.126Z,24.39
2023-02-19T10:32:19.523Z,23.69
2023-02-19T10:34:47.872Z,23.75
2023-02-19T10:37:18.738Z,23.93
2023-02-19T10:39:48.002Z,23.63
2023-02-19T10:42:18.114Z,23.55
2023-02-19T10:44:48.533Z,23.55
2023-02-19T10:47:18.539Z,23.82
2023-02-19T10:49:47.017Z,23.97
2023-02-19T10:52:19.651Z,24.28
2023-02-19T10:54:52.717Z,24.14
2023-02-19T10:57:21.272Z,24.15
2023-02-19T10:59:51.785Z,24.01
2023-02-19T11:02:21.705Z,24.20
2023-02-19T11:05:09.164Z,24.11
2023-02-19T11:07:37.845Z,23.95
2023-02-19T11:10:06.923Z,23.87
2023-02-19T11:12:35.595Z,24.04
2023-02-19T11:15:20.350Z,23.69
2023-02-19T11:17:55.493Z,23.84
2023-02-19T11:20:24.103Z,24.44
2023-02-19T11:22:58.294Z,24.99
2023-02-19T11:25:28.390Z,25.82
2023-02-19T11:28:16.845Z,26.22
2023-02-19T11:30:48.654Z,27.02
2023-02-19T11:33:19.555Z,27.39
2023-02-19T11:35:48.340Z,27.75
2023-02-19T11:38:17.988Z,27.73
2023-02-19T11:40:51.854Z,28.01
2023-02-19T11:43:32.326Z,28.33
2023-02-19T11:46:00.343Z,27.89
2023-02-19T11:48:44.869Z,27.64
2023-02-19T11:51:27.127Z,28.00
2023-02-19T11:54:01.052Z,28.01
2023-02-19T11:56:34.822Z,27.76
2023-02-19T11:59:13.017Z,27.53
2023-02-19T12:02:04.866Z,27.73
2023-02-19T12:04:33.292Z,28.12
2023-02-19T12:07:21.218Z,27.99
2023-02-19T12:10:03.535Z,28.90
2023-02-19T12:12:32.099Z,31.15
2023-02-19T12:15:03.466Z,33.55
2023-02-19T12:17:59.288Z,35.43
2023-02-19T12:20:39.281Z,37.02
2023-02-19T12:23:34.524Z,38.35
2023-02-19T12:26:10.304Z,40.11
2023-02-19T12:28:56.906Z,41.57
2023-02-19T12:31:36.774Z,42.68
2023-02-19T12:34:18.019Z,43.51
2023-02-19T12:37:13.410Z,43.89
2023-02-19T12:39:48.053Z,45.33
2023-02-19T12:42:34.279Z,46.19
2023-02-19T12:45:07.269Z,47.35
2023-02-19T12:47:39.398Z,48.22
2023-02-19T12:50:22.658Z,49.00
2023-02-19T12:52:52.213Z,50.42
2023-02-19T12:55:27.642Z,50.69
2023-02-19T12:57:58.790Z,50.84
2023-02-19T13:00:34.089Z,50.25
2023-02-19T13:03:11.524Z,49.90
2023-02-19T13:05:47.106Z,50.08
2023-02-19T13:09:03.489Z,50.36
2023-02-19T13:11:36.707Z,52.10
2023-02-19T13:14:22.737Z,52.74
2023-02-19T13:16:53.650Z,52.84
2023-02-19T13:19:21.756Z,54.01
2023-02-19T13:21:53.872Z,54.71
2023-02-19T13:24:27.005Z,55.84
2023-02-19T13:27:21.506Z,56.85
2023-02-19T13:30:08.362Z,57.70
2023-02-19T13:32:54.807Z,58.55
2023-02-19T13:35:42.140Z,58.94
2023-02-19T13:38:11.660Z,58.30
2023-02-19T13:40:41.463Z,57.69
2023-02-19T13:43:27.271Z,57.42
2023-02-19T13:45:57.752Z,57.52
2023-02-19T13:48:25.789Z,57.37
2023-02-19T13:51:13.231Z,57.78
2023-02-19T13:53:41.504Z,58.38
2023-02-19T13:56:28.654Z,59.01
2023-02-19T13:59:12.505Z,59.91
2023-02-19T14:01:49.853Z,60.26
2023-02-19T14:04:23.812Z,59.98
2023-02-19T14:07:07.274Z,59.56
2023-02-19T14:09:38.136Z,59.25
2023-02-19T14:12:15.445Z,59.28
2023-02-19T14:14:45.362Z,59.51
2023-02-19T14:17:29.473Z,59.90
2023-02-19T14:19:57.849Z,60.04
2023-02-19T14:22:45.184Z,59.96
2023-02-19T14:25:35.500Z,60.13
2023-02-19T14:28:09.529Z,59.94
2023-02-19T14:31:00.662Z,59.90
2023-02-19T14:33:30.739Z,59.96
2023-02-19T14:36:17.644Z,60.12
2023-02-19T14:38:52.112Z,60.15
2023-02-19T14:41:21.096Z,60.28
2023-02-19T14:43:50.608Z,60.39
2023-02-19T14:46:24.573Z,60.61
2023-02-19T14:48:53.158Z,60.96
2023-02-19T14:51:30.382Z,61.28
2023-02-19T14:53:59.671Z,61.31
2023-02-19T14:56:32.471Z,61.45
2023-02-19T14:59:19.438Z,61.42
2023-02-19T15:01:54.166Z,61.68
2023-02-19T15:04:24.339Z,61.59
2023-02-19T15:06:53.822Z,61.86
2023-02-19T15:09:25.033Z,61.96
2023-02-19T15:11:54.469Z,61.79
2023-02-19T15:14:23.472Z,61.93
2023-02-19T15:16:56.858Z,61.92
2023-02-19T15:19:25.905Z,62.39
2023-02-19T15:21:54.332Z,62.30
2023-02-19T15:24:23.260Z,62.60
2023-02-19T15:26:52.384Z,62.82
2023-02-19T15:29:21.982Z,62.97
2023-02-19T15:31:54.746Z,62.91
2023-02-19T15:34:24.195Z,63.17
2023-02-19T15:37:04.106Z,63.37
2023-02-19T15:39:46.241Z,63.96
2023-02-19T15:42:18.869Z,64.48
2023-02-19T15:44:52.328Z,64.91
2023-02-19T15:47:29.858Z,65.12
2023-02-19T15:50:06.475Z,65.33
2023-02-19T15:52:49.499Z,65.63
2023-02-19T15:55:18.457Z,65.92
2023-02-19T15:57:50.899Z,66.07
2023-02-19T16:00:28.006Z,66.36
2023-02-19T16:02:56.457Z,66.40
2023-02-19T16:05:25.935Z,66.54
2023-02-19T16:08:26.659Z,66.91
2023-02-19T16:10:56.247Z,67.08
2023-02-19T16:13:25.343Z,67.07
2023-02-19T16:15:58.062Z,67.35
2023-02-19T16:18:26.247Z,67.84
2023-02-19T16:20:54.285Z,68.16
2023-02-19T16:23:22.564Z,68.42
2023-02-19T16:25:57.623Z,69.31
2023-02-19T16:28:26.995Z,69.77
2023-02-19T16:31:13.867Z,70.22
2023-02-19T16:33:47.570Z,70.82
2023-02-19T16:36:19.553Z,71.22
2023-02-19T16:38:59.914Z,71.38
2023-02-19T16:41:27.988Z,71.29
2023-02-19T16:43:56.007Z,71.44
2023-02-19T16:46:24.789Z,71.86
2023-02-19T16:48:54.395Z,72.20
2023-02-19T16:51:25.834Z,72.58
2023-02-19T16:53:53.955Z,73.12
2023-02-19T16:56:22.079Z,73.51
2023-02-19T16:58:50.410Z,73.50
2023-02-19T17:01:18.780Z,73.79
2023-02-19T17:03:47.278Z,73.96
2023-02-19T17:06:15.804Z,74.59
2023-02-19T17:08:44.652Z,74.83
2023-02-19T17:11:14.381Z,74.90
2023-02-19T17:13:43.027Z,75.39
2023-02-19T17:16:17.460Z,75.49
2023-02-19T17:18:45.754Z,75.76
2023-02-19T17:21:19.966Z,75.44
2023-02-19T17:23:50.366Z,75.47
2023-02-19T17:26:20.197Z,75.53
2023-02-19T17:28:50.278Z,75.78
2023-02-19T17:31:18.441Z,75.97
2023-02-19T17:33:46.553Z,75.88
2023-02-19T17:36:19.857Z,76.33
2023-02-19T17:38:47.941Z,76.91
2023-02-19T17:41:16.015Z,77.28
2023-02-19T17:43:46.679Z,77.83
2023-02-19T17:46:16.024Z,77.79
2023-02-19T17:48:44.297Z,78.17
2023-02-19T17:51:12.891Z,78.11
2023-02-19T17:53:41.668Z,78.31
2023-02-19T17:56:12.098Z,78.87
2023-02-19T17:58:40.080Z,78.68
2023-02-19T18:01:08.119Z,79.03
2023-02-19T18:03:36.286Z,79.26
2023-02-19T18:06:04.661Z,79.26
2023-02-19T18:08:32.705Z,79.11
2023-02-19T18:11:00.791Z,79.00
2023-02-19T18:13:28.816Z,79.30
2023-02-19T18:15:56.876Z,79.63
2023-02-19T18:18:25.024Z,79.79
2023-02-19T18:20:53.084Z,79.60
2023-02-19T18:23:21.369Z,79.61
2023-02-19T18:25:49.961Z,79.83
2023-02-19T18:28:18.092Z,80.16
2023-02-19T18:30:47.036Z,80.27
2023-02-19T18:33:15.483Z,80.47
2023-02-19T18:35:44.401Z,80.58
2023-02-19T18:38:12.388Z,80.59
2023-02-19T18:40:41.049Z,80.61
2023-02-19T18:43:09.088Z,80.77
2023-02-19T18:45:37.278Z,80.91
2023-02-19T18:48:05.384Z,80.83
2023-02-19T18:50:33.500Z,80.80
2023-02-19T18:53:01.557Z,80.89
2023-02-19T18:55:30.965Z,81.00
2023-02-19T18:57:59.076Z,81.41
2023-02-19T19:00:28.234Z,81.54
2023-02-19T19:02:59.313Z,81.24
2023-02-19T19:05:27.921Z,81.25
2023-02-19T19:07:56.940Z,81.15
2023-02-19T19:10:26.309Z,81.20
2023-02-19T19:12:54.685Z,81.11
2023-02-19T19:15:23.287Z,80.88
2023-02-19T19:17:51.507Z,80.75
2023-02-19T19:20:20.549Z,80.57
2023-02-19T19:22:49.464Z,80.56
2023-02-19T19:25:17.900Z,80.54
2023-02-19T19:27:46.017Z,80.75
2023-02-19T19:30:14.665Z,80.63
2023-02-19T19:32:42.941Z,80.55
2023-02-19T19:35:10.957Z,80.45
2023-02-19T19:37:39.210Z,80.56
2023-02-19T19:40:07.850Z,80.47
2023-02-19T19:42:35.960Z,80.33
2023-02-19T19:45:04.443Z,80.25
2023-02-19T19:47:32.509Z,80.23
2023-02-19T19:50:00.682Z,80.15
2023-02-19T19:52:28.743Z,80.06
2023-02-19T19:54:56.753Z,80.00
2023-02-19T19:57:24.957Z,79.85
2023-02-19T19:59:54.056Z,79.87
2023-02-19T20:02:22.247Z,80.37
2023-02-19T20:04:50.490Z,80.96
2023-02-19T20:07:18.700Z,81.10
2023-02-19T20:09:47.566Z,81.66
2023-02-19T20:12:16.327Z,82.17
2023-02-19T20:14:47.449Z,82.30
2023-02-19T20:17:15.631Z,81.98
2023-02-19T20:19:45.510Z,81.99
2023-02-19T20:22:13.605Z,81.84
2023-02-19T20:24:41.879Z,81.87
2023-02-19T20:27:10.027Z,81.91
2023-02-19T20:29:38.078Z,81.76
2023-02-19T20:32:06.628Z,81.61
2023-02-19T20:34:34.694Z,81.41
2023-02-19T20:37:02.829Z,81.23
2023-02-19T20:39:31.578Z,81.10
2023-02-19T20:42:00.139Z,80.92
2023-02-19T20:44:28.695Z,80.73
2023-02-19T20:46:57.574Z,80.56
2023-02-19T20:49:29.785Z,80.36
2023-02-19T20:51:59.086Z,80.09
2023-02-19T20:54:28.244Z,79.90
2023-02-19T20:56:57.483Z,79.72
2023-02-19T20:59:27.636Z,79.62
2023-02-19T21:01:55.884Z,79.57
2023-02-19T21:04:24.072Z,79.55
2023-02-19T21:06:52.249Z,79.48
2023-02-19T21:09:21.031Z,79.41
2023-02-19T21:11:49.747Z,79.32
2023-02-19T21:14:18.614Z,79.22
2023-02-19T21:16:46.699Z,79.16
2023-02-19T21:19:14.685Z,79.10
2023-02-19T21:21:43.100Z,78.94
2023-02-19T21:24:12.855Z,78.87
2023-02-19T21:26:42.011Z,78.71
2023-02-19T21:29:10.734Z,78.65
2023-02-19T21:31:41.068Z,78.65
2023-02-19T21:34:10.334Z,78.63
2023-02-19T21:36:38.857Z,78.47
2023-02-19T21:39:08.378Z,78.41
2023-02-19T21:41:36.496Z,78.44
2023-02-19T21:44:05.281Z,78.45
2023-02-19T21:46:33.314Z,78.44
2023-02-19T21:49:02.547Z,78.39
2023-02-19T21:51:33.130Z,78.35
2023-02-19T21:54:04.526Z,78.31
2023-02-19T21:56:37.024Z,78.25
2023-02-19T21:59:05.122Z,78.21
2023-02-19T22:01:36.519Z,78.14
2023-02-19T22:04:05.398Z,78.09
2023-02-19T22:06:34.105Z,78.03
2023-02-19T22:09:02.790Z,77.97
2023-02-19T22:11:45.558Z,77.94
2023-02-19T22:14:13.709Z,77.87
2023-02-19T22:16:41.831Z,77.82
2023-02-19T22:19:09.846Z,77.78
2023-02-19T22:21:41.977Z,77.76
2023-02-19T22:24:14.712Z,77.74
2023-02-19T22:26:42.967Z,77.72
2023-02-19T22:29:12.051Z,77.68
2023-02-19T22:31:40.671Z,77.65
2023-02-19T22:34:09.490Z,77.58
2023-02-19T22:36:37.638Z,77.51
2023-02-19T22:39:06.502Z,77.42
2023-02-19T22:41:35.293Z,77.31
2023-02-19T22:44:03.333Z,77.25
2023-02-19T22:46:31.404Z,77.23
2023-02-19T22:49:02.451Z,77.24
2023-02-19T22:51:33.294Z,77.25
2023-02-19T22:54:01.682Z,77.23
2023-02-19T22:56:30.346Z,77.21
2023-02-19T22:58:59.172Z,77.19
2023-02-19T23:01:27.306Z,77.17
2023-02-19T23:03:59.908Z,77.13
2023-02-19T23:06:32.557Z,77.05
2023-02-19T23:09:10.540Z,76.82
2023-02-19T23:11:39.752Z,76.73
2023-02-19T23:14:08.134Z,76.76
2023-02-19T23:16:36.202Z,76.54
2023-02-19T23:19:08.870Z,76.45
2023-02-19T23:21:37.550Z,76.43
2023-02-19T23:24:05.726Z,76.48
2023-02-19T23:26:33.868Z,76.44
2023-02-19T23:29:02.102Z,76.24
2023-02-19T23:31:30.272Z,76.18
2023-02-19T23:33:58.440Z,76.13
2023-02-19T23:36:26.397Z,76.08
2023-02-19T23:38:54.491Z,76.12
2023-02-19T23:41:22.943Z,76.03
2023-02-19T23:43:51.005Z,75.95
2023-02-19T23:46:19.096Z,75.88
2023-02-19T23:48:47.449Z,75.73
2023-02-19T23:51:15.484Z,75.64
2023-02-19T23:53:43.611Z,75.55
2023-02-19T23:56:12.278Z,75.41
2023-02-19T23:58:40.507Z,75.24
